createdAt,value
2023-04-08T00:04:52.705Z,77.80
2023-04-08T00:09:49.463Z,77.80
2023-04-08T00:14:46.251Z,77.80
2023-04-08T00:17:14.407Z,77.80
2023-04-08T00:19:48.172Z,77.90
2023-04-08T00:24:44.822Z,77.80
2023-04-08T00:27:12.887Z,77.80
2023-04-08T00:29:40.958Z,77.80
2023-04-08T00:32:09.032Z,77.80
2023-04-08T00:34:37.265Z,77.80
2023-04-08T00:37:06.769Z,77.70
2023-04-08T00:39:34.814Z,77.70
2023-04-08T00:42:03.373Z,77.70
2023-04-08T00:44:31.424Z,77.70
2023-04-08T00:46:59.463Z,77.60
2023-04-08T00:49:27.821Z,77.50
2023-04-08T00:56:54.616Z,77.30
2023-04-08T00:59:22.682Z,77.30
2023-04-08T01:01:55.370Z,77.40
2023-04-08T01:04:27.673Z,77.40
2023-04-08T01:06:58.282Z,77.40
2023-04-08T01:09:31.207Z,77.30
2023-04-08T01:16:57.125Z,77.20
2023-04-08T01:19:28.786Z,77.20
2023-04-08T01:21:56.903Z,77.10
2023-04-08T01:26:56.721Z,77.10
2023-04-08T01:29:25.301Z,77.10
2023-04-08T01:31:53.705Z,77.10
2023-04-08T01:34:22.686Z,77.10
2023-04-08T01:36:50.810Z,77.00
2023-04-08T01:39:19.086Z,77.00
2023-04-08T01:44:16.909Z,77.00
2023-04-08T01:51:41.897Z,76.90
2023-04-08T01:54:09.950Z,77.00
2023-04-08T01:56:39.114Z,77.00
2023-04-08T02:01:38.228Z,76.80
2023-04-08T02:04:06.563Z,76.80
2023-04-08T02:06:34.653Z,76.70
2023-04-08T02:09:03.160Z,76.70
2023-04-08T02:11:31.733Z,76.50
2023-04-08T02:16:31.772Z,76.50
2023-04-08T02:19:04.761Z,76.50
2023-04-08T02:21:34.859Z,76.50
2023-04-08T02:26:32.135Z,76.50
2023-04-08T02:29:00.353Z,76.30
2023-04-08T02:31:28.432Z,76.30
2023-04-08T02:36:26.762Z,76.50
2023-04-08T02:38:54.852Z,76.60
2023-04-08T02:41:22.921Z,76.60
2023-04-08T02:43:55.541Z,76.60
2023-04-08T02:48:52.047Z,76.60
2023-04-08T02:51:20.114Z,76.50
2023-04-08T02:53:49.561Z,76.60
2023-04-08T02:56:22.894Z,76.50
2023-04-08T02:58:52.235Z,76.40
2023-04-08T03:03:49.057Z,76.40
2023-04-08T03:06:17.251Z,76.40
2023-04-08T03:08:46.922Z,76.30
2023-04-08T03:11:16.387Z,76.40
2023-04-08T03:13:44.491Z,76.30
2023-04-08T03:16:12.640Z,76.40
2023-04-08T03:18:41.035Z,76.30
2023-04-08T03:21:09.090Z,76.30
2023-04-08T03:23:37.153Z,76.30
2023-04-08T03:26:05.287Z,76.30
2023-04-08T03:28:34.739Z,76.20
2023-04-08T03:31:03.950Z,76.20
2023-04-08T03:33:32.052Z,76.20
2023-04-08T03:36:00.214Z,76.20
2023-04-08T03:38:28.277Z,76.20
2023-04-08T03:40:56.404Z,76.10
2023-04-08T03:43:25.608Z,76.10
2023-04-08T03:45:55.070Z,76.10
2023-04-08T03:48:23.213Z,76.10
2023-04-08T03:50:51.547Z,76.10
2023-04-08T03:53:19.608Z,76.00
2023-04-08T03:55:47.698Z,76.10
2023-04-08T03:58:15.779Z,76.00
2023-04-08T04:00:43.817Z,76.10
2023-04-08T04:03:13.470Z,76.00
2023-04-08T04:05:41.694Z,75.90
2023-04-08T04:08:10.409Z,75.90
2023-04-08T04:10:38.492Z,75.90
2023-04-08T04:13:06.795Z,75.90
2023-04-08T04:15:34.876Z,75.90
2023-04-08T04:18:02.966Z,75.90
2023-04-08T04:20:32.507Z,75.80
2023-04-08T04:23:04.965Z,75.90
2023-04-08T04:25:33.048Z,75.90
2023-04-08T04:28:01.799Z,75.80
2023-04-08T04:30:30.130Z,75.80
2023-04-08T04:32:58.235Z,75.80
2023-04-08T04:35:26.314Z,75.80
2023-04-08T04:37:55.777Z,75.80
2023-04-08T04:40:23.862Z,75.80
2023-04-08T04:42:51.939Z,75.80
2023-04-08T04:45:20.282Z,75.70
2023-04-08T04:47:48.344Z,75.70
2023-04-08T04:50:16.475Z,75.70
2023-04-08T04:52:44.538Z,75.60
2023-04-08T04:55:15.778Z,75.70
2023-04-08T04:57:44.448Z,75.60
2023-04-08T05:00:13.183Z,75.70
2023-04-08T05:02:47.319Z,75.70
2023-04-08T05:05:15.804Z,75.50
2023-04-08T05:07:43.948Z,75.60
2023-04-08T05:10:13.854Z,75.70
2023-04-08T05:12:42.291Z,75.60
2023-04-08T05:15:11.007Z,75.60
2023-04-08T05:17:39.095Z,75.60
2023-04-08T05:20:08.322Z,75.50
2023-04-08T05:22:36.425Z,75.60
2023-04-08T05:25:04.555Z,75.60
2023-04-08T05:27:34.016Z,75.50
2023-04-08T05:30:02.122Z,75.50
2023-04-08T05:32:31.067Z,75.50
2023-04-08T05:34:59.151Z,75.50
2023-04-08T05:37:27.225Z,75.50
2023-04-08T05:39:58.991Z,75.50
2023-04-08T05:42:27.124Z,75.50
2023-04-08T05:44:56.654Z,75.50
2023-04-08T05:47:24.750Z,75.50
2023-04-08T05:49:52.868Z,75.50
2023-04-08T05:52:21.311Z,75.40
2023-04-08T05:54:49.364Z,75.50
2023-04-08T05:57:17.892Z,75.50
2023-04-08T05:59:46.142Z,75.50
2023-04-08T06:02:15.680Z,75.40
2023-04-08T06:04:44.046Z,75.40
2023-04-08T06:07:12.331Z,75.40
2023-04-08T06:09:41.386Z,75.50
2023-04-08T06:12:09.483Z,75.40
2023-04-08T06:14:37.559Z,75.30
2023-04-08T06:17:06.427Z,75.40
2023-04-08T06:19:36.224Z,75.40
2023-04-08T06:22:04.270Z,75.40
2023-04-08T06:24:32.874Z,75.40
2023-04-08T06:27:00.981Z,75.40
2023-04-08T06:29:29.978Z,75.40
2023-04-08T06:31:58.142Z,75.40
2023-04-08T06:34:26.366Z,75.40
2023-04-08T06:36:55.909Z,75.40
2023-04-08T06:39:24.052Z,75.30
2023-04-08T06:41:52.395Z,75.40
2023-04-08T06:44:20.471Z,75.40
2023-04-08T06:46:48.495Z,75.30
2023-04-08T06:49:16.714Z,75.40
2023-04-08T06:51:44.775Z,75.30
2023-04-08T06:54:14.217Z,75.30
2023-04-08T06:56:42.268Z,75.30
2023-04-08T06:59:10.341Z,75.40
2023-04-08T07:01:39.550Z,75.30
2023-04-08T07:04:07.753Z,75.40
2023-04-08T07:06:35.838Z,75.40
2023-04-08T07:09:04.775Z,75.30
2023-04-08T07:11:34.473Z,75.30
2023-04-08T07:14:02.856Z,75.30
2023-04-08T07:16:30.932Z,75.40
2023-04-08T07:18:59.097Z,75.30
2023-04-08T07:21:27.181Z,75.30
2023-04-08T07:23:55.676Z,75.30
2023-04-08T07:26:23.743Z,75.30
2023-04-08T07:28:54.454Z,75.30
2023-04-08T07:31:22.590Z,75.30
2023-04-08T07:33:50.662Z,75.30
2023-04-08T07:36:23.103Z,75.30
2023-04-08T07:38:51.775Z,75.40
2023-04-08T07:41:19.984Z,75.30
2023-04-08T07:43:48.051Z,75.30
2023-04-08T07:46:17.517Z,75.30
2023-04-08T07:48:45.605Z,75.30
2023-04-08T07:51:17.273Z,75.30
2023-04-08T07:53:48.722Z,75.30
2023-04-08T07:56:18.296Z,75.30
2023-04-08T07:58:54.410Z,75.30
2023-04-08T08:01:24.486Z,75.30
2023-04-08T08:03:53.539Z,75.30
2023-04-08T08:06:22.307Z,75.30
2023-04-08T08:08:50.505Z,75.30
2023-04-08T08:11:18.607Z,75.40
2023-04-08T08:13:46.678Z,75.40
2023-04-08T08:16:14.820Z,75.40
2023-04-08T08:18:44.367Z,75.30
2023-04-08T08:21:12.417Z,75.40
2023-04-08T08:23:40.505Z,75.40
2023-04-08T08:26:09.865Z,75.40
2023-04-08T08:28:38.427Z,75.40
2023-04-08T08:31:06.763Z,75.40
2023-04-08T08:33:34.854Z,75.40
2023-04-08T08:36:05.608Z,75.40
2023-04-08T08:38:33.684Z,75.40
2023-04-08T08:41:01.985Z,75.50
2023-04-08T08:43:33.366Z,75.40
2023-04-08T08:46:01.646Z,75.50
2023-04-08T08:48:30.012Z,75.50
2023-04-08T08:50:58.057Z,75.50
2023-04-08T08:53:32.753Z,75.50
2023-04-08T08:58:33.377Z,75.60
2023-04-08T09:01:01.463Z,75.60
2023-04-08T09:03:29.965Z,75.60
2023-04-08T09:05:59.777Z,75.60
2023-04-08T09:08:33.411Z,75.60
2023-04-08T09:11:14.933Z,75.60
2023-04-08T09:13:43.010Z,75.60
2023-04-08T09:16:11.695Z,75.70
2023-04-08T09:18:41.099Z,75.60
2023-04-08T09:21:09.322Z,75.60
2023-04-08T09:23:43.003Z,75.70
2023-04-08T09:26:11.771Z,75.70
2023-04-08T09:28:40.068Z,75.70
2023-04-08T09:31:20.893Z,75.70
2023-04-08T09:33:49.468Z,75.70
2023-04-08T09:36:18.260Z,75.70
2023-04-08T09:38:48.025Z,75.70
2023-04-08T09:41:16.863Z,75.70
2023-04-08T09:43:49.614Z,75.70
2023-04-08T09:46:19.200Z,75.70
2023-04-08T09:48:52.326Z,75.70
2023-04-08T09:51:21.438Z,75.70
2023-04-08T09:53:54.833Z,75.70
2023-04-08T09:56:22.859Z,75.70
2023-04-08T09:58:53.416Z,75.70
2023-04-08T10:01:25.731Z,75.70
2023-04-08T10:03:55.612Z,75.70
2023-04-08T10:06:23.783Z,75.70
2023-04-08T10:08:53.240Z,75.70
2023-04-08T10:11:21.297Z,75.70
2023-04-08T10:13:49.490Z,75.70
2023-04-08T10:16:22.343Z,75.70
2023-04-08T10:18:52.976Z,75.80
2023-04-08T10:21:34.204Z,75.80
2023-04-08T10:24:07.158Z,75.80
2023-04-08T10:26:36.792Z,75.80
2023-04-08T10:29:33.076Z,75.80
2023-04-08T10:32:05.339Z,75.80
2023-04-08T10:34:33.432Z,75.80
2023-04-08T10:37:02.241Z,75.80
2023-04-08T10:39:31.865Z,75.80
2023-04-08T10:42:00.166Z,75.80
2023-04-08T10:44:28.294Z,75.80
2023-04-08T10:46:56.527Z,75.80
2023-04-08T10:49:24.972Z,75.80
2023-04-08T10:51:53.389Z,75.80
2023-04-08T10:54:23.510Z,75.80
2023-04-08T10:56:54.728Z,75.90
2023-04-08T10:59:29.069Z,75.80
2023-04-08T11:01:57.295Z,75.80
2023-04-08T11:04:25.853Z,75.80
2023-04-08T11:06:54.083Z,75.80
2023-04-08T11:09:22.149Z,75.90
2023-04-08T11:11:50.214Z,75.90
2023-04-08T11:14:22.003Z,75.90
2023-04-08T11:16:50.097Z,75.90
2023-04-08T11:19:18.122Z,75.90
2023-04-08T11:21:46.796Z,75.90
2023-04-08T11:24:16.578Z,75.90
2023-04-08T11:26:44.865Z,75.90
2023-04-08T11:29:14.867Z,75.90
2023-04-08T11:31:44.631Z,76.00
2023-04-08T11:34:23.330Z,76.00
2023-04-08T11:36:51.560Z,76.00
2023-04-08T11:39:19.610Z,76.00
2023-04-08T11:41:47.627Z,76.00
2023-04-08T11:44:17.271Z,76.00
2023-04-08T11:46:57.405Z,76.00
2023-04-08T11:49:25.754Z,76.00
2023-04-08T11:51:59.041Z,76.00
2023-04-08T11:54:30.047Z,76.00
2023-04-08T11:56:59.196Z,76.10
2023-04-08T11:59:29.344Z,76.10
2023-04-08T12:01:59.448Z,76.10
2023-04-08T12:04:27.687Z,76.10
2023-04-08T12:06:57.647Z,76.10
2023-04-08T12:09:27.331Z,76.10
2023-04-08T12:11:56.731Z,76.10
2023-04-08T12:14:27.683Z,76.10
2023-04-08T12:16:56.536Z,76.20
2023-04-08T12:19:27.071Z,76.20
2023-04-08T12:21:55.145Z,76.20
2023-04-08T12:24:23.320Z,76.20
2023-04-08T12:26:51.361Z,76.20
2023-04-08T12:29:19.386Z,76.20
2023-04-08T12:31:47.466Z,76.20
2023-04-08T12:34:15.543Z,76.30
2023-04-08T12:36:49.861Z,76.30
2023-04-08T12:39:17.954Z,76.30
2023-04-08T12:41:47.356Z,76.30
2023-04-08T12:44:15.539Z,76.30
2023-04-08T12:46:43.693Z,76.30
2023-04-08T12:49:12.159Z,76.30
2023-04-08T12:51:40.765Z,76.30
2023-04-08T12:54:10.253Z,76.30
2023-04-08T12:56:39.161Z,76.40
2023-04-08T12:59:07.220Z,76.40
2023-04-08T13:01:35.397Z,76.40
2023-04-08T13:04:03.620Z,76.40
2023-04-08T13:06:32.038Z,76.40
2023-04-08T13:09:00.128Z,76.40
2023-04-08T13:11:29.608Z,76.40
2023-04-08T13:13:57.693Z,76.40
2023-04-08T13:16:25.768Z,76.50
2023-04-08T13:18:53.871Z,76.50
2023-04-08T13:21:21.992Z,76.50
2023-04-08T13:23:50.044Z,76.50
2023-04-08T13:26:18.131Z,76.50
2023-04-08T13:28:56.592Z,76.50
2023-04-08T13:31:26.135Z,76.50
2023-04-08T13:33:57.610Z,76.60
2023-04-08T13:36:26.880Z,76.60
2023-04-08T13:38:54.981Z,76.60
2023-04-08T13:41:23.211Z,76.60
2023-04-08T13:43:52.693Z,76.60
2023-04-08T13:46:20.907Z,76.60
2023-04-08T13:48:49.337Z,76.60
2023-04-08T13:51:17.593Z,76.70
2023-04-08T13:53:45.673Z,76.70
2023-04-08T13:56:14.184Z,76.70
2023-04-08T13:58:42.827Z,76.70
2023-04-08T14:01:12.390Z,76.70
2023-04-08T14:03:41.590Z,76.70
2023-04-08T14:06:09.637Z,76.70
2023-04-08T14:08:37.717Z,76.70
2023-04-08T14:11:06.097Z,76.70
2023-04-08T14:13:34.288Z,76.80
2023-04-08T14:16:03.105Z,76.80
2023-04-08T14:18:32.524Z,76.80
2023-04-08T14:21:00.575Z,76.80
2023-04-08T14:23:28.660Z,76.80
2023-04-08T14:25:56.687Z,76.80
2023-04-08T14:28:24.715Z,76.80
2023-04-08T14:30:52.806Z,76.80
2023-04-08T14:33:21.042Z,76.80
2023-04-08T14:35:50.583Z,76.90
2023-04-08T14:38:18.640Z,76.90
2023-04-08T14:40:46.784Z,76.90
2023-04-08T14:43:14.835Z,76.90
2023-04-08T14:45:44.923Z,76.90
2023-04-08T14:48:12.965Z,76.90
2023-04-08T14:50:41.207Z,76.90
2023-04-08T14:53:10.621Z,76.90
2023-04-08T14:55:38.743Z,76.90
2023-04-08T14:58:06.843Z,76.90
2023-04-08T15:00:34.901Z,76.90
2023-04-08T15:03:03.516Z,76.90
2023-04-08T15:05:31.873Z,76.90
2023-04-08T15:07:59.924Z,77.00
2023-04-08T15:10:29.358Z,77.00
2023-04-08T15:12:57.385Z,77.00
2023-04-08T15:15:25.578Z,77.00
2023-04-08T15:17:53.620Z,77.00
2023-04-08T15:20:21.708Z,77.00
2023-04-08T15:22:49.771Z,77.00
2023-04-08T15:25:17.804Z,77.00
2023-04-08T15:27:47.227Z,77.10
2023-04-08T15:30:15.423Z,77.00
2023-04-08T15:32:43.559Z,77.10
2023-04-08T15:35:12.132Z,77.10
2023-04-08T15:37:40.172Z,77.10
2023-04-08T15:40:09.642Z,77.10
2023-04-08T15:42:37.740Z,77.10
2023-04-08T15:45:07.942Z,77.10
2023-04-08T15:47:36.746Z,77.10
2023-04-08T15:50:05.291Z,77.10
2023-04-08T15:52:35.195Z,77.10
2023-04-08T15:55:06.173Z,77.10
2023-04-08T15:57:36.365Z,77.10
2023-04-08T16:00:10.471Z,77.10
2023-04-08T16:02:38.990Z,77.10
2023-04-08T16:05:07.963Z,77.10
2023-04-08T16:07:36.220Z,77.20
2023-04-08T16:10:04.391Z,77.10
2023-04-08T16:12:32.883Z,77.20
2023-04-08T16:15:00.965Z,77.10
2023-04-08T16:17:30.692Z,77.20
2023-04-08T16:19:58.819Z,77.20
2023-04-08T16:22:26.954Z,77.20
2023-04-08T16:24:55.114Z,77.20
2023-04-08T16:27:23.185Z,77.20
2023-04-08T16:29:53.538Z,77.20
2023-04-08T16:32:22.098Z,77.20
2023-04-08T16:34:51.606Z,77.20
2023-04-08T16:37:19.642Z,77.20
2023-04-08T16:39:53.800Z,77.20
2023-04-08T16:42:21.851Z,77.20
2023-04-08T16:44:49.926Z,77.20
2023-04-08T16:47:17.988Z,77.20
2023-04-08T16:49:46.009Z,77.20
2023-04-08T16:52:15.436Z,77.30
2023-04-08T16:54:44.460Z,77.30
2023-04-08T16:57:12.525Z,77.20
2023-04-08T16:59:40.704Z,77.30
2023-04-08T17:02:08.958Z,77.30
2023-04-08T17:04:37.118Z,77.30
2023-04-08T17:07:05.178Z,77.30
2023-04-08T17:09:34.630Z,77.30
2023-04-08T17:12:03.209Z,77.30
2023-04-08T17:14:31.346Z,77.30
2023-04-08T17:16:59.413Z,77.30
2023-04-08T17:19:27.458Z,77.30
2023-04-08T17:21:55.569Z,77.30
2023-04-08T17:24:23.613Z,77.30
2023-04-08T17:26:53.192Z,77.40
2023-04-08T17:29:21.250Z,77.40
2023-04-08T17:31:49.328Z,77.40
2023-04-08T17:34:17.979Z,77.40
2023-04-08T17:36:46.065Z,77.40
2023-04-08T17:39:14.091Z,77.40
2023-04-08T17:41:43.442Z,77.40
2023-04-08T17:44:14.115Z,77.40
2023-04-08T17:46:42.192Z,77.40
2023-04-08T17:49:11.264Z,77.40
2023-04-08T17:51:39.316Z,77.40
2023-04-08T17:54:11.727Z,77.50
2023-04-08T17:56:39.939Z,77.40
2023-04-08T17:59:08.033Z,77.50
2023-04-08T18:01:38.323Z,77.50
2023-04-08T18:04:08.294Z,77.50
2023-04-08T18:06:36.665Z,77.50
2023-04-08T18:09:04.768Z,77.50
2023-04-08T18:11:32.894Z,77.50
2023-04-08T18:14:00.946Z,77.50
2023-04-08T18:16:29.018Z,77.50
2023-04-08T18:18:58.451Z,77.50
2023-04-08T18:21:27.200Z,77.50
2023-04-08T18:23:55.325Z,77.50
2023-04-08T18:26:23.409Z,77.50
2023-04-08T18:28:51.456Z,77.60
2023-04-08T18:31:19.622Z,77.50
2023-04-08T18:33:47.729Z,77.60
2023-04-08T18:36:17.451Z,77.60
2023-04-08T18:38:45.736Z,77.60
2023-04-08T18:41:13.860Z,77.60
2023-04-08T18:43:41.913Z,77.60
2023-04-08T18:46:10.035Z,77.60
2023-04-08T18:48:38.076Z,77.60
2023-04-08T18:51:06.461Z,77.60
2023-04-08T18:53:35.877Z,77.60
2023-04-08T18:56:04.811Z,77.60
2023-04-08T18:58:33.491Z,77.60
2023-04-08T19:01:01.584Z,77.60
2023-04-08T19:03:29.705Z,77.60
2023-04-08T19:05:57.847Z,77.60
2023-04-08T19:08:25.928Z,77.60
2023-04-08T19:10:55.403Z,77.60
2023-04-08T19:13:23.898Z,77.60
2023-04-08T19:15:51.982Z,77.70
2023-04-08T19:18:20.083Z,77.70
2023-04-08T19:23:16.511Z,77.70
2023-04-08T19:25:44.802Z,77.70
2023-04-08T19:28:14.409Z,77.70
2023-04-08T19:30:42.482Z,77.80
2023-04-08T19:33:10.729Z,77.70
2023-04-08T19:35:39.158Z,77.70
2023-04-08T19:38:12.069Z,77.70
2023-04-08T19:40:41.962Z,77.70
2023-04-08T19:43:10.034Z,77.70
2023-04-08T19:45:39.480Z,77.70
2023-04-08T19:48:07.620Z,77.70
2023-04-08T19:50:38.197Z,77.70
2023-04-08T19:53:06.231Z,77.70
2023-04-08T19:55:37.263Z,77.70
2023-04-08T19:58:05.403Z,77.70
2023-04-08T20:00:33.562Z,77.70
2023-04-08T20:03:03.294Z,77.80
2023-04-08T20:07:59.897Z,77.80
2023-04-08T20:12:56.448Z,77.80
2023-04-08T20:15:25.551Z,77.80
2023-04-08T20:17:54.245Z,77.80
2023-04-08T20:20:24.074Z,77.80
2023-04-08T20:22:52.577Z,77.80
2023-04-08T20:25:20.855Z,77.80
2023-04-08T20:27:48.919Z,77.80
2023-04-08T20:30:17.015Z,77.80
2023-04-08T20:32:45.184Z,77.80
2023-04-08T20:35:13.507Z,77.80
2023-04-08T20:37:42.992Z,77.80
2023-04-08T20:40:11.464Z,77.80
2023-04-08T20:42:39.638Z,77.80
2023-04-08T20:45:08.970Z,77.80
2023-04-08T20:47:37.511Z,77.80
2023-04-08T20:50:06.132Z,77.80
2023-04-08T20:52:34.263Z,77.80
2023-04-08T20:55:08.502Z,77.80
2023-04-08T20:57:36.646Z,77.80
2023-04-08T21:00:05.761Z,77.80
2023-04-08T21:02:34.699Z,77.80
2023-04-08T21:05:02.982Z,77.80
2023-04-08T21:07:31.388Z,77.80
2023-04-08T21:09:59.462Z,77.80
2023-04-08T21:12:28.874Z,77.80
2023-04-08T21:14:56.895Z,77.80
2023-04-08T21:17:25.013Z,77.80
2023-04-08T21:19:53.135Z,77.80
2023-04-08T21:22:21.164Z,77.80
2023-04-08T21:24:49.234Z,77.80
2023-04-08T21:27:17.289Z,77.80
2023-04-08T21:29:46.710Z,77.80
2023-04-08T21:32:14.798Z,77.80
2023-04-08T21:34:43.368Z,77.80
2023-04-08T21:39:39.859Z,77.80
2023-04-08T21:42:07.932Z,77.80
2023-04-08T21:44:36.502Z,77.80
2023-04-08T21:47:06.123Z,77.80
2023-04-08T21:52:03.268Z,77.80
2023-04-08T21:54:31.330Z,77.80
2023-04-08T21:56:59.486Z,77.80
2023-04-08T22:01:56.962Z,77.80
2023-04-08T22:04:27.706Z,77.70
2023-04-08T22:06:55.803Z,77.80
2023-04-08T22:09:23.846Z,77.70
2023-04-08T22:11:51.904Z,77.70
2023-04-08T22:14:19.963Z,77.70
2023-04-08T22:16:48.094Z,77.70
2023-04-08T22:19:17.862Z,77.70
2023-04-08T22:21:47.292Z,77.70
2023-04-08T22:24:15.497Z,77.70
2023-04-08T22:26:43.609Z,77.70
2023-04-08T22:29:11.664Z,77.70
2023-04-08T22:31:39.692Z,77.70
2023-04-08T22:36:36.106Z,77.70
2023-04-08T22:39:05.545Z,77.70
2023-04-08T22:41:33.586Z,77.70
2023-04-08T22:44:01.633Z,77.60
2023-04-08T22:46:29.788Z,77.70
2023-04-08T22:48:57.879Z,77.60
2023-04-08T22:51:25.961Z,77.60
2023-04-08T22:56:24.005Z,77.60
2023-04-08T23:01:22.238Z,77.60
2023-04-08T23:03:50.642Z,77.60
2023-04-08T23:06:18.698Z,77.60
2023-04-08T23:08:46.768Z,77.50
2023-04-08T23:11:14.828Z,77.50
2023-04-08T23:13:44.323Z,77.60
2023-04-08T23:16:12.398Z,77.50
2023-04-08T23:18:40.684Z,77.50
2023-04-08T23:21:08.732Z,77.50
2023-04-08T23:23:36.757Z,77.50
2023-04-08T23:26:04.881Z,77.50
2023-04-08T23:28:32.925Z,77.50
2023-04-08T23:31:05.037Z,77.40
2023-04-08T23:33:33.166Z,77.50
2023-04-08T23:36:01.286Z,77.40
2023-04-08T23:38:29.416Z,77.40
2023-04-08T23:40:57.482Z,77.40
2023-04-08T23:43:25.597Z,77.40
2023-04-08T23:48:23.397Z,77.40
2023-04-08T23:50:52.270Z,77.40
2023-04-08T23:53:20.382Z,77.40
2023-04-08T23:55:48.533Z,77.40
2023-04-08T23:58:16.717Z,77.40
